• Join FlightAware (Why Join?)
  • Login
  • US Flag 
05:59PM EDT


 

Airport Tracker/Info


-or-


 

Live Flight TrackerFlight Track Log ✈ SWA286 ✈ 24-Oct-2013 ✈ KMCO - KISP

Flight Track Log - Related Links

Times and Time Zones

All times are in EDT time to prevent confusion due to time zone crossing. See the SWA286 flight status page for this flight to view local times or setup timezone preferences in your user account.

Time Position Orientation Groundspeed Altitude Reporting Facility
EDT Latitude Longitude Course Direction KTS MPH feet Rate Location/Type
07:57PM 28.5000 -81.2667 28° Northeast 218 251 2,800  Level Orlando TRACON
07:58PM 28.5500 -81.2500 16° North 259 298 5,100 2,460 Climbing Orlando TRACON
07:59PM 28.6333 -81.2667 350° North 266 306 7,800 2,160 Climbing Orlando TRACON
08:01PM 28.7433 -81.3036 344° North 294 338 10,700 2,280 Climbing Jacksonville Center
08:02PM 28.8353 -81.3258 348° North 319 367 13,800 2,580 Climbing Jacksonville Center
08:03PM 28.9317 -81.3481 349° North 332 382 15,900 2,040 Climbing Jacksonville Center
08:04PM 29.0300 -81.3728 348° North 345 397 17,900 1,980 Climbing Jacksonville Center
08:05PM 29.1325 -81.3972 348° North 366 421 19,900 1,740 Climbing Jacksonville Center
08:06PM 29.2475 -81.4028 358° North 388 447 21,400 1,740 Climbing Jacksonville Center
08:07PM 29.3625 -81.4178 354° North 407 468 23,400 1,860 Climbing Jacksonville Center
08:08PM 29.4794 -81.4303 355° North 412 474 25,200 1,500 Climbing Jacksonville Center
08:09PM 29.6028 -81.4403 356° North 424 488 26,500 1,260 Climbing Jacksonville Center
08:10PM 29.7261 -81.4528 355° North 435 501 27,800 1,200 Climbing Jacksonville Center
08:11PM 29.8514 -81.4628 356° North 445 512 29,000 1,200 Climbing Jacksonville Center
08:12PM 29.9831 -81.4706 357° North 451 519 30,200 1,380 Climbing Jacksonville Center
08:13PM 30.1122 -81.4542 North 456 525 31,800 1,140 Climbing Jacksonville Center
08:14PM 30.2436 -81.4378 North 466 536 32,500 780 Climbing Jacksonville Center
08:15PM 30.3792 -81.4214 North 472 543 33,400 900 Climbing Jacksonville Center
08:16PM 30.5147 -81.4047 North 478 550 34,300 780 Climbing Jacksonville Center
08:17PM 30.6500 -81.3858 North 483 556 35,000 300 Climbing Jacksonville Center
08:18PM 30.7811 -81.3425 16° North 483 556 35,000  Level Jacksonville Center
08:19PM 30.9075 -81.2656 28° Northeast 489 563 35,000  Level Jacksonville Center
08:20PM 31.0319 -81.1881 28° Northeast 494 568 35,000  Level Jacksonville Center
08:21PM 31.1581 -81.1131 27° Northeast 499 574 35,000  Level Jacksonville Center
08:22PM 31.2844 -81.0353 28° Northeast 504 580 35,000  Level Jacksonville Center
08:23PM 31.4125 -80.9547 28° Northeast 507 583 35,000  Level Jacksonville Center
08:24PM 31.5514 -80.8739 26° Northeast 512 589 35,000  Level Jacksonville Center
08:25PM 31.6650 -80.8031 28° Northeast 507 583 35,000  Level Jacksonville Center
08:26PM 31.8033 -80.7194 27° Northeast 507 583 35,000  Level Jacksonville Center
08:27PM 31.9294 -80.6431 27° Northeast 507 583 35,000  Level Jacksonville Center
08:28PM 32.0450 -80.5717 28° Northeast 507 583 35,000  Level Jacksonville Center
08:29PM 32.1833 -80.4844 28° Northeast 506 582 35,000  Level Jacksonville Center
08:30PM 32.3069 -80.4050 29° Northeast 507 583 35,000  Level Jacksonville Center
08:31PM 32.4242 -80.3108 34° Northeast 507 583 35,000  Level Jacksonville Center
08:32PM 32.5389 -80.2067 37° Northeast 512 589 35,000  Level Jacksonville Center
08:33PM 32.6556 -80.1019 37° Northeast 518 596 35,000  Level Jacksonville Center
08:34PM 32.7700 -79.9972 38° Northeast 518 596 35,000  Level Jacksonville Center
08:35PM 32.8867 -79.8919 37° Northeast 523 602 35,000  Level Jacksonville Center
08:36PM 33.0031 -79.7889 37° Northeast 523 602 35,000  Level Jacksonville Center
08:37PM 33.1194 -79.6833 37° Northeast 523 602 35,000  Level Jacksonville Center
08:38PM 33.2356 -79.5772 37° Northeast 523 602 35,000  Level Jacksonville Center
08:39PM 33.3517 -79.4686 38° Northeast 523 602 35,000  Level Jacksonville Center
08:40PM 33.4678 -79.3644 37° Northeast 523 602 35,000  Level Jacksonville Center
08:42PM 33.6889 -79.1606 37° Northeast 528 608 35,000  Level Washington Center
08:43PM 33.8047 -79.0531 38° Northeast 528 608 35,000  Level Washington Center
08:44PM 33.9206 -78.9425 38° Northeast 528 608 35,000  Level Washington Center
08:45PM 34.0358 -78.8394 37° Northeast 523 602 35,000  Level Washington Center
08:46PM 34.1514 -78.7336 37° Northeast 523 602 35,000  Level Washington Center
08:47PM 34.2669 -78.6225 38° Northeast 523 602 35,000  Level Washington Center
08:48PM 34.3822 -78.5161 37° Northeast 523 602 35,000  Level Washington Center
08:50PM 34.6169 -78.2922 38° Northeast 523 602 35,000  Level Washington Center
08:51PM 34.7300 -78.1822 39° Northeast 523 602 35,000  Level Washington Center
08:52PM 34.8453 -78.0694 39° Northeast 523 602 35,000  Level Washington Center
08:53PM 34.9600 -77.9592 38° Northeast 523 602 35,000  Level Washington Center
08:54PM 35.0750 -77.8456 39° Northeast 523 602 35,000  Level Washington Center
08:55PM 35.1917 -77.7344 38° Northeast 523 602 35,000  Level Washington Center
08:56PM 35.3064 -77.6206 39° Northeast 523 602 35,000  Level Washington Center
08:57PM 35.4250 -77.5114 37° Northeast 523 602 35,000  Level Washington Center
08:58PM 35.5478 -77.4044 35° Northeast 528 608 35,000  Level Washington Center
08:59PM 35.6681 -77.3000 35° Northeast 533 613 35,000  Level Washington Center
09:00PM 35.7886 -77.1925 36° Northeast 533 613 35,000  Level Washington Center
09:01PM 35.8919 -77.0969 37° Northeast 523 602 35,000  Level Washington Center
09:02PM 36.0164 -76.9889 35° Northeast 523 602 35,000  Level Washington Center
09:03PM 36.1386 -76.8831 35° Northeast 528 608 35,000  Level Washington Center
09:04PM 36.2608 -76.7717 36° Northeast 533 613 35,000  Level Washington Center
09:05PM 36.3828 -76.6653 35° Northeast 533 613 35,000  Level Washington Center
09:06PM 36.5047 -76.5558 36° Northeast 533 613 35,000  Level Washington Center
09:07PM 36.6286 -76.4461 35° Northeast 538 619 35,000  Level Washington Center
09:08PM 36.7608 -76.3206 37° Northeast 543 625 35,000  Level Washington Center
09:09PM 36.8806 -76.2125 36° Northeast 543 625 35,000  Level Washington Center
09:10PM 37.0058 -76.1433 24° Northeast 543 625 35,000  Level Washington Center
09:11PM 37.1397 -76.0714 23° Northeast 523 602 35,000  Level Washington Center
09:12PM 37.2736 -75.9886 26° Northeast 518 596 35,000  Level Washington Center
09:13PM 37.4031 -75.9056 27° Northeast 518 596 35,000  Level Washington Center
09:14PM 37.5369 -75.8197 27° Northeast 518 596 35,000  Level Washington Center
09:15PM 37.6683 -75.7361 27° Northeast 518 596 35,000  Level Washington Center
09:16PM 37.8039 -75.6547 25° Northeast 525 604 35,000 -60 Level Washington Center
09:17PM 37.9333 -75.5628 29° Northeast 525 604 34,900  Descending Washington Center
09:18PM 38.0647 -75.4653 30° Northeast 537 618 35,000  Climbing Washington Center
09:19PM 38.1917 -75.3644 32° Northeast 542 624 35,000  Level Washington Center
09:20PM 38.3353 -75.2528 31° Northeast 542 624 35,000  Level Washington Center
09:21PM 38.4664 -75.1542 30° Northeast 537 618 35,000  Level Washington Center
09:22PM 38.5953 -75.0525 32° Northeast 537 618 35,000 -60 Level Washington Center
09:23PM 38.7239 -74.9503 32° Northeast 537 618 34,900  Descending Washington Center
09:24PM 38.8525 -74.8586 29° Northeast 537 618 35,000  Climbing Washington Center
09:25PM 38.9811 -74.7531 33° Northeast 537 618 34,900 -960 Descending Washington Center
09:26PM 39.1097 -74.6553 31° Northeast 537 618 33,100 -2,760 Descending Washington Center
09:27PM 39.2400 -74.5492 32° Northeast 537 618 29,500 -3,420 Descending Washington Center
09:29PM 39.4339 -74.2814 47° Northeast 604 695 23,500 -3,000 Descending New York Center
09:30PM 39.5344 -74.1275 50° Northeast 578 665 21,000 -1,260 Descending New York Center
09:31PM 39.6239 -73.9833 51° Northeast 539 620 21,000  Level New York Center
09:32PM 39.7153 -73.8392 50° Northeast 522 601 21,000 -180 Level New York Center
09:33PM 39.8064 -73.6972 50° Northeast 510 587 20,700 -720 Descending New York Center
09:34PM 39.8933 -73.5575 51° Northeast 505 581 19,600 -1,680 Descending New York Center
09:35PM 40.0389 -73.3794 43° Northeast 444 511 16,300 -2,340 Descending Boston Center
09:36PM 40.1225 -73.2808 42° Northeast 409 471 13,400 -3,000 Descending Boston Center
09:37PM 40.2136 -73.1706 43° Northeast 374 430 10,300 -1,740 Descending Boston Center
09:39PM 40.2781 -73.0936 42° Northeast 316 364 10,000 -600 Descending Boston Center
09:40PM 40.3372 -73.0219 43° Northeast 292 336 9,100 -900 Descending Boston Center
09:41PM 40.4022 -72.9689 32° Northeast 281 323 8,200 -1,140 Descending Boston Center
09:42PM 40.4731 -72.9469 13° North 263 303 6,800 -1,380 Descending Boston Center
09:43PM 40.5456 -72.9239 14° North 265 305 5,400 -1,140 Descending Boston Center
09:44PM 40.6164 -72.9008 14° North 263 303 4,500 -1,020 Descending Boston Center
09:45PM 40.6808 -72.9100 354° North 257 296 3,400 -780 Descending Boston Center
09:46PM 40.7322 -72.9533 327° Northwest 235 270 3,000 -840 Descending Boston Center
09:47PM 40.7767 -72.9875 330° Northwest 206 237 1,800 -780 Descending Boston Center
09:48PM 40.8131 -73.0139 331° Northwest 172 198 1,500 -360 Descending Boston Center
09:49PM 40.8311 -73.0469 306° West 137 158 1,100 -600 Descending Boston Center
09:50PM 40.8117 -73.0839 235° Southwest 129 148 400 -420 Descending Boston Center
09:51PM 40.7858 -73.1172 224° Southwest 129 148 300 -120 Descending Boston Center